Terminal Aerodrome Forecast
Issued by NWS Amarillo, TX

Current Version | Previous Version | Text Only | Print | Product List | Glossary Off
Versions: 1 2 3 4 5 6 7 8 9 10 11 12 13 14

000
FTUS44 KAMA 241700
TAFDHT
TAF
KDHT 241720Z 2418/2518 35015G25KT P6SM BKN060
     FM242000 31013KT P6SM SKC
     FM250200 17008KT P6SM SKC
     FM251500 22015G25KT P6SM SCT200=

USA.gov is the U.S. government's official web portal to all federal, state and local government web resources and services.